Watauga, Texas
Current Conditions -  °F | °C
As of 12:53 PM on Tuesday 21 Oct 2014 (Local Time) from KFTW Reporting Station
Clear Clear  
Wind Chill: 79°   Ceiling: Unl
Heat Index: 79°   Visibility: 10mi
Dew Point: 54°   Wind: 9mph
Humidity: 42%   Direction: 120°ESE
Pressure: 30.07"   Gusts: NA
Location:  32.8687°N, 97.2516°W
Report Text: KFTW 211753Z 12008KT 10SM CLR 26/12 A3007 RMK AO2 SLP177 T02610122 10261 20150 58013
Loading
Personal Weather Stations






























Interactive Weather Map New forecast layout! Learn more

10-Day Weather Forecast

Advertisements
Track Severe Weather on mobile